sensor_id;sensor_type;location;lat;lon;timestamp;P1;durP1;ratioP1;P2;durP2;ratioP2
27632;SDS011;15046;50.930;13.334;2023-08-08T00:00:05;8.52;;;3.60;;
27632;SDS011;15046;50.930;13.334;2023-08-08T00:02:31;8.30;;;2.72;;
27632;SDS011;15046;50.930;13.334;2023-08-08T00:04:57;10.73;;;3.67;;
27632;SDS011;15046;50.930;13.334;2023-08-08T00:07:23;5.95;;;3.38;;
27632;SDS011;15046;50.930;13.334;2023-08-08T00:09:48;9.43;;;3.28;;
27632;SDS011;15046;50.930;13.334;2023-08-08T00:12:14;8.63;;;3.05;;
27632;SDS011;15046;50.930;13.334;2023-08-08T00:14:40;7.65;;;3.25;;
27632;SDS011;15046;50.930;13.334;2023-08-08T00:17:06;6.82;;;2.97;;
27632;SDS011;15046;50.930;13.334;2023-08-08T00:19:31;7.75;;;3.03;;
27632;SDS011;15046;50.930;13.334;2023-08-08T00:21:57;8.60;;;3.13;;
27632;SDS011;15046;50.930;13.334;2023-08-08T00:24:23;6.65;;;3.08;;
27632;SDS011;15046;50.930;13.334;2023-08-08T00:26:49;9.57;;;3.20;;
27632;SDS011;15046;50.930;13.334;2023-08-08T00:29:14;6.10;;;3.05;;
27632;SDS011;15046;50.930;13.334;2023-08-08T00:31:40;7.57;;;2.88;;
27632;SDS011;15046;50.930;13.334;2023-08-08T00:34:06;8.07;;;3.20;;
27632;SDS011;15046;50.930;13.334;2023-08-08T00:36:31;10.35;;;3.40;;
27632;SDS011;15046;50.930;13.334;2023-08-08T00:38:57;8.57;;;3.35;;
27632;SDS011;15046;50.930;13.334;2023-08-08T00:41:23;9.65;;;3.50;;
27632;SDS011;15046;50.930;13.334;2023-08-08T00:43:48;7.28;;;3.38;;
27632;SDS011;15046;50.930;13.334;2023-08-08T00:46:15;7.68;;;3.05;;
27632;SDS011;15046;50.930;13.334;2023-08-08T00:48:43;10.05;;;3.47;;
27632;SDS011;15046;50.930;13.334;2023-08-08T00:51:09;8.85;;;3.22;;
27632;SDS011;15046;50.930;13.334;2023-08-08T00:53:35;9.40;;;3.30;;
27632;SDS011;15046;50.930;13.334;2023-08-08T00:56:01;7.05;;;3.33;;
27632;SDS011;15046;50.930;13.334;2023-08-08T00:58:26;8.60;;;3.38;;
27632;SDS011;15046;50.930;13.334;2023-08-08T01:00:54;6.88;;;3.00;;
27632;SDS011;15046;50.930;13.334;2023-08-08T01:03:22;9.27;;;2.95;;
27632;SDS011;15046;50.930;13.334;2023-08-08T01:05:51;9.38;;;3.13;;
27632;SDS011;15046;50.930;13.334;2023-08-08T01:08:26;8.18;;;3.60;;
27632;SDS011;15046;50.930;13.334;2023-08-08T01:10:58;6.78;;;3.60;;
27632;SDS011;15046;50.930;13.334;2023-08-08T01:13:25;5.72;;;3.58;;
27632;SDS011;15046;50.930;13.334;2023-08-08T01:15:52;6.10;;;3.30;;
27632;SDS011;15046;50.930;13.334;2023-08-08T01:18:20;8.30;;;3.60;;
27632;SDS011;15046;50.930;13.334;2023-08-08T01:20:46;8.32;;;3.47;;
27632;SDS011;15046;50.930;13.334;2023-08-08T01:23:23;9.15;;;3.85;;
27632;SDS011;15046;50.930;13.334;2023-08-08T01:25:50;7.25;;;3.63;;
27632;SDS011;15046;50.930;13.334;2023-08-08T01:28:20;7.80;;;3.58;;
27632;SDS011;15046;50.930;13.334;2023-08-08T01:30:47;6.95;;;3.72;;
27632;SDS011;15046;50.930;13.334;2023-08-08T01:33:13;8.02;;;3.38;;
27632;SDS011;15046;50.930;13.334;2023-08-08T01:35:39;9.98;;;3.28;;
27632;SDS011;15046;50.930;13.334;2023-08-08T01:38:13;6.95;;;3.00;;
27632;SDS011;15046;50.930;13.334;2023-08-08T01:40:44;6.05;;;3.10;;
27632;SDS011;15046;50.930;13.334;2023-08-08T01:43:11;7.75;;;3.38;;
27632;SDS011;15046;50.930;13.334;2023-08-08T01:45:39;5.53;;;3.22;;
27632;SDS011;15046;50.930;13.334;2023-08-08T01:48:08;7.53;;;3.22;;
27632;SDS011;15046;50.930;13.334;2023-08-08T01:53:01;6.95;;;2.92;;
27632;SDS011;15046;50.930;13.334;2023-08-08T01:55:27;12.65;;;3.55;;
27632;SDS011;15046;50.930;13.334;2023-08-08T01:57:53;7.88;;;2.95;;
27632;SDS011;15046;50.930;13.334;2023-08-08T02:00:18;7.60;;;3.00;;
27632;SDS011;15046;50.930;13.334;2023-08-08T02:02:45;8.55;;;2.97;;
27632;SDS011;15046;50.930;13.334;2023-08-08T02:05:11;6.80;;;3.10;;
27632;SDS011;15046;50.930;13.334;2023-08-08T02:07:36;8.05;;;3.40;;
27632;SDS011;15046;50.930;13.334;2023-08-08T02:10:02;7.35;;;2.92;;
27632;SDS011;15046;50.930;13.334;2023-08-08T02:12:28;7.25;;;3.50;;
27632;SDS011;15046;50.930;13.334;2023-08-08T02:14:55;5.72;;;2.75;;
27632;SDS011;15046;50.930;13.334;2023-08-08T02:17:22;7.85;;;3.03;;
27632;SDS011;15046;50.930;13.334;2023-08-08T02:19:47;7.28;;;3.05;;
27632;SDS011;15046;50.930;13.334;2023-08-08T02:22:13;13.68;;;3.83;;
27632;SDS011;15046;50.930;13.334;2023-08-08T02:24:39;6.45;;;2.63;;
27632;SDS011;15046;50.930;13.334;2023-08-08T02:27:05;5.10;;;2.70;;
27632;SDS011;15046;50.930;13.334;2023-08-08T02:29:31;6.43;;;2.92;;
27632;SDS011;15046;50.930;13.334;2023-08-08T02:31:57;8.45;;;3.20;;
27632;SDS011;15046;50.930;13.334;2023-08-08T02:34:23;10.60;;;3.08;;
27632;SDS011;15046;50.930;13.334;2023-08-08T02:36:49;4.47;;;2.63;;
27632;SDS011;15046;50.930;13.334;2023-08-08T02:39:14;6.65;;;2.83;;
27632;SDS011;15046;50.930;13.334;2023-08-08T02:41:40;10.38;;;3.90;;
27632;SDS011;15046;50.930;13.334;2023-08-08T02:44:07;12.60;;;3.13;;
27632;SDS011;15046;50.930;13.334;2023-08-08T02:46:33;8.70;;;3.88;;
27632;SDS011;15046;50.930;13.334;2023-08-08T02:48:59;5.68;;;2.83;;
27632;SDS011;15046;50.930;13.334;2023-08-08T02:51:25;8.02;;;2.97;;
27632;SDS011;15046;50.930;13.334;2023-08-08T02:53:51;10.85;;;3.53;;
27632;SDS011;15046;50.930;13.334;2023-08-08T02:56:17;6.72;;;3.35;;
27632;SDS011;15046;50.930;13.334;2023-08-08T02:58:42;7.60;;;2.90;;
27632;SDS011;15046;50.930;13.334;2023-08-08T03:01:08;6.70;;;3.15;;
27632;SDS011;15046;50.930;13.334;2023-08-08T03:03:34;7.18;;;3.10;;
27632;SDS011;15046;50.930;13.334;2023-08-08T03:06:00;8.05;;;3.90;;
27632;SDS011;15046;50.930;13.334;2023-08-08T03:08:27;8.90;;;3.22;;
27632;SDS011;15046;50.930;13.334;2023-08-08T03:10:53;9.40;;;3.67;;
27632;SDS011;15046;50.930;13.334;2023-08-08T03:13:18;6.95;;;2.97;;
27632;SDS011;15046;50.930;13.334;2023-08-08T03:15:45;7.95;;;3.25;;
27632;SDS011;15046;50.930;13.334;2023-08-08T03:18:10;8.35;;;3.42;;
27632;SDS011;15046;50.930;13.334;2023-08-08T03:20:36;6.55;;;3.50;;
27632;SDS011;15046;50.930;13.334;2023-08-08T03:23:05;7.72;;;3.90;;
27632;SDS011;15046;50.930;13.334;2023-08-08T03:25:31;8.25;;;3.50;;
27632;SDS011;15046;50.930;13.334;2023-08-08T03:27:56;11.13;;;3.50;;
27632;SDS011;15046;50.930;13.334;2023-08-08T03:30:22;7.72;;;3.50;;
27632;SDS011;15046;50.930;13.334;2023-08-08T03:32:48;6.45;;;3.40;;
27632;SDS011;15046;50.930;13.334;2023-08-08T03:35:14;8.73;;;3.90;;
27632;SDS011;15046;50.930;13.334;2023-08-08T03:37:40;8.32;;;3.30;;
27632;SDS011;15046;50.930;13.334;2023-08-08T03:40:07;8.70;;;3.25;;
27632;SDS011;15046;50.930;13.334;2023-08-08T03:42:33;9.30;;;4.00;;
27632;SDS011;15046;50.930;13.334;2023-08-08T03:44:59;6.95;;;2.80;;
27632;SDS011;15046;50.930;13.334;2023-08-08T03:47:25;7.22;;;3.25;;
27632;SDS011;15046;50.930;13.334;2023-08-08T03:49:51;7.40;;;3.58;;
27632;SDS011;15046;50.930;13.334;2023-08-08T03:52:20;10.18;;;3.10;;
27632;SDS011;15046;50.930;13.334;2023-08-08T03:54:46;11.05;;;3.72;;
27632;SDS011;15046;50.930;13.334;2023-08-08T03:57:12;6.70;;;3.53;;
27632;SDS011;15046;50.930;13.334;2023-08-08T03:59:41;6.03;;;2.92;;
27632;SDS011;15046;50.930;13.334;2023-08-08T04:02:07;5.78;;;2.80;;
27632;SDS011;15046;50.930;13.334;2023-08-08T04:04:33;11.82;;;3.55;;
27632;SDS011;15046;50.930;13.334;2023-08-08T04:06:59;7.53;;;3.25;;
27632;SDS011;15046;50.930;13.334;2023-08-08T04:09:25;13.38;;;3.45;;
27632;SDS011;15046;50.930;13.334;2023-08-08T04:11:51;6.78;;;2.80;;
27632;SDS011;15046;50.930;13.334;2023-08-08T04:14:17;5.10;;;3.03;;
27632;SDS011;15046;50.930;13.334;2023-08-08T04:16:43;6.00;;;3.58;;
27632;SDS011;15046;50.930;13.334;2023-08-08T04:19:09;5.43;;;3.10;;
27632;SDS011;15046;50.930;13.334;2023-08-08T04:21:34;7.72;;;2.97;;
27632;SDS011;15046;50.930;13.334;2023-08-08T04:24:01;6.43;;;3.50;;
27632;SDS011;15046;50.930;13.334;2023-08-08T04:26:27;5.13;;;2.70;;
27632;SDS011;15046;50.930;13.334;2023-08-08T04:28:53;5.68;;;2.97;;
27632;SDS011;15046;50.930;13.334;2023-08-08T04:31:18;6.65;;;2.90;;
27632;SDS011;15046;50.930;13.334;2023-08-08T04:33:44;9.45;;;3.75;;
27632;SDS011;15046;50.930;13.334;2023-08-08T04:36:10;7.03;;;2.75;;
27632;SDS011;15046;50.930;13.334;2023-08-08T04:38:36;7.15;;;3.50;;
27632;SDS011;15046;50.930;13.334;2023-08-08T04:41:02;5.45;;;2.90;;
27632;SDS011;15046;50.930;13.334;2023-08-08T04:43:27;5.20;;;2.80;;
27632;SDS011;15046;50.930;13.334;2023-08-08T04:45:53;5.05;;;2.90;;
27632;SDS011;15046;50.930;13.334;2023-08-08T04:48:19;6.10;;;3.05;;
27632;SDS011;15046;50.930;13.334;2023-08-08T04:50:48;6.30;;;3.08;;
27632;SDS011;15046;50.930;13.334;2023-08-08T04:53:14;9.30;;;3.08;;
27632;SDS011;15046;50.930;13.334;2023-08-08T04:55:39;6.07;;;3.03;;
27632;SDS011;15046;50.930;13.334;2023-08-08T04:58:05;7.40;;;2.72;;
27632;SDS011;15046;50.930;13.334;2023-08-08T05:00:31;6.00;;;3.35;;
27632;SDS011;15046;50.930;13.334;2023-08-08T05:02:57;8.93;;;3.65;;
27632;SDS011;15046;50.930;13.334;2023-08-08T05:05:24;5.57;;;2.72;;
27632;SDS011;15046;50.930;13.334;2023-08-08T05:07:49;4.85;;;2.83;;
27632;SDS011;15046;50.930;13.334;2023-08-08T05:10:15;5.45;;;3.05;;
27632;SDS011;15046;50.930;13.334;2023-08-08T05:12:42;5.32;;;2.80;;
27632;SDS011;15046;50.930;13.334;2023-08-08T05:15:10;5.72;;;3.13;;
27632;SDS011;15046;50.930;13.334;2023-08-08T05:17:37;9.23;;;3.08;;
27632;SDS011;15046;50.930;13.334;2023-08-08T05:20:03;12.38;;;3.42;;
27632;SDS011;15046;50.930;13.334;2023-08-08T05:22:29;8.52;;;2.85;;
27632;SDS011;15046;50.930;13.334;2023-08-08T05:24:55;6.47;;;3.13;;
27632;SDS011;15046;50.930;13.334;2023-08-08T05:27:20;8.20;;;2.97;;
27632;SDS011;15046;50.930;13.334;2023-08-08T05:29:46;9.07;;;3.28;;
27632;SDS011;15046;50.930;13.334;2023-08-08T05:32:12;7.10;;;2.90;;
27632;SDS011;15046;50.930;13.334;2023-08-08T05:34:38;6.97;;;3.03;;
27632;SDS011;15046;50.930;13.334;2023-08-08T05:37:04;5.95;;;2.90;;
27632;SDS011;15046;50.930;13.334;2023-08-08T05:39:30;8.00;;;3.45;;
27632;SDS011;15046;50.930;13.334;2023-08-08T05:41:56;7.40;;;2.85;;
27632;SDS011;15046;50.930;13.334;2023-08-08T05:44:22;7.07;;;2.90;;
27632;SDS011;15046;50.930;13.334;2023-08-08T05:46:48;8.20;;;2.95;;
27632;SDS011;15046;50.930;13.334;2023-08-08T05:49:13;4.47;;;2.60;;
27632;SDS011;15046;50.930;13.334;2023-08-08T05:51:40;6.07;;;2.50;;
27632;SDS011;15046;50.930;13.334;2023-08-08T05:54:06;8.00;;;2.58;;
27632;SDS011;15046;50.930;13.334;2023-08-08T05:56:37;5.72;;;3.13;;
27632;SDS011;15046;50.930;13.334;2023-08-08T05:59:04;6.55;;;2.40;;
27632;SDS011;15046;50.930;13.334;2023-08-08T06:01:30;8.68;;;2.67;;
27632;SDS011;15046;50.930;13.334;2023-08-08T06:03:56;7.35;;;2.90;;
27632;SDS011;15046;50.930;13.334;2023-08-08T06:06:24;9.15;;;2.72;;
27632;SDS011;15046;50.930;13.334;2023-08-08T06:08:50;4.03;;;2.28;;
27632;SDS011;15046;50.930;13.334;2023-08-08T06:11:17;7.18;;;2.92;;
27632;SDS011;15046;50.930;13.334;2023-08-08T06:13:42;5.60;;;2.47;;
27632;SDS011;15046;50.930;13.334;2023-08-08T06:16:08;5.88;;;2.85;;
27632;SDS011;15046;50.930;13.334;2023-08-08T06:18:34;5.05;;;2.30;;
27632;SDS011;15046;50.930;13.334;2023-08-08T06:21:01;5.57;;;2.20;;
27632;SDS011;15046;50.930;13.334;2023-08-08T06:23:27;6.95;;;2.17;;
27632;SDS011;15046;50.930;13.334;2023-08-08T06:25:53;7.30;;;2.10;;
27632;SDS011;15046;50.930;13.334;2023-08-08T06:28:19;5.28;;;2.65;;
27632;SDS011;15046;50.930;13.334;2023-08-08T06:30:44;6.47;;;2.55;;
27632;SDS011;15046;50.930;13.334;2023-08-08T06:33:10;6.03;;;2.47;;
27632;SDS011;15046;50.930;13.334;2023-08-08T06:35:36;4.50;;;2.30;;
27632;SDS011;15046;50.930;13.334;2023-08-08T06:38:02;9.57;;;2.58;;
27632;SDS011;15046;50.930;13.334;2023-08-08T06:40:28;10.60;;;3.55;;
27632;SDS011;15046;50.930;13.334;2023-08-08T06:42:54;5.43;;;2.53;;
27632;SDS011;15046;50.930;13.334;2023-08-08T06:45:20;6.60;;;2.88;;
27632;SDS011;15046;50.930;13.334;2023-08-08T06:47:46;5.63;;;2.92;;
27632;SDS011;15046;50.930;13.334;2023-08-08T06:50:12;5.20;;;2.50;;
27632;SDS011;15046;50.930;13.334;2023-08-08T06:52:38;6.20;;;2.38;;
27632;SDS011;15046;50.930;13.334;2023-08-08T06:55:04;4.80;;;2.95;;
27632;SDS011;15046;50.930;13.334;2023-08-08T06:57:32;6.95;;;2.45;;
27632;SDS011;15046;50.930;13.334;2023-08-08T06:59:58;6.38;;;3.03;;
27632;SDS011;15046;50.930;13.334;2023-08-08T07:02:24;5.22;;;2.70;;
27632;SDS011;15046;50.930;13.334;2023-08-08T07:04:50;6.88;;;3.10;;
27632;SDS011;15046;50.930;13.334;2023-08-08T07:07:16;9.18;;;3.25;;
27632;SDS011;15046;50.930;13.334;2023-08-08T07:09:43;6.45;;;3.28;;
27632;SDS011;15046;50.930;13.334;2023-08-08T07:12:09;8.65;;;3.08;;
27632;SDS011;15046;50.930;13.334;2023-08-08T07:14:35;6.60;;;3.50;;
27632;SDS011;15046;50.930;13.334;2023-08-08T07:17:00;7.20;;;3.15;;
27632;SDS011;15046;50.930;13.334;2023-08-08T07:19:29;8.68;;;3.50;;
27632;SDS011;15046;50.930;13.334;2023-08-08T07:21:54;10.23;;;3.20;;
27632;SDS011;15046;50.930;13.334;2023-08-08T07:24:20;5.00;;;3.05;;
27632;SDS011;15046;50.930;13.334;2023-08-08T07:26:46;6.35;;;3.30;;
27632;SDS011;15046;50.930;13.334;2023-08-08T07:29:12;6.57;;;2.88;;
27632;SDS011;15046;50.930;13.334;2023-08-08T07:31:38;6.63;;;3.45;;
27632;SDS011;15046;50.930;13.334;2023-08-08T07:34:04;6.30;;;3.40;;
27632;SDS011;15046;50.930;13.334;2023-08-08T07:36:29;5.40;;;2.40;;
27632;SDS011;15046;50.930;13.334;2023-08-08T07:38:55;5.88;;;3.03;;
27632;SDS011;15046;50.930;13.334;2023-08-08T07:41:25;8.07;;;3.07;;
27632;SDS011;15046;50.930;13.334;2023-08-08T07:43:55;6.82;;;2.67;;
27632;SDS011;15046;50.930;13.334;2023-08-08T07:46:21;4.35;;;2.20;;
27632;SDS011;15046;50.930;13.334;2023-08-08T07:48:47;6.30;;;2.58;;
27632;SDS011;15046;50.930;13.334;2023-08-08T07:51:13;4.25;;;1.98;;
27632;SDS011;15046;50.930;13.334;2023-08-08T07:53:39;5.47;;;2.60;;
27632;SDS011;15046;50.930;13.334;2023-08-08T07:56:04;5.78;;;2.42;;
27632;SDS011;15046;50.930;13.334;2023-08-08T07:58:32;5.18;;;2.28;;
27632;SDS011;15046;50.930;13.334;2023-08-08T08:00:58;7.47;;;2.67;;
27632;SDS011;15046;50.930;13.334;2023-08-08T08:03:25;5.07;;;2.45;;
27632;SDS011;15046;50.930;13.334;2023-08-08T08:05:52;4.75;;;1.95;;
27632;SDS011;15046;50.930;13.334;2023-08-08T08:08:18;5.97;;;2.20;;
27632;SDS011;15046;50.930;13.334;2023-08-08T08:10:44;4.97;;;2.10;;
27632;SDS011;15046;50.930;13.334;2023-08-08T08:13:11;3.38;;;2.10;;
27632;SDS011;15046;50.930;13.334;2023-08-08T08:15:37;5.13;;;2.22;;
27632;SDS011;15046;50.930;13.334;2023-08-08T08:18:03;4.05;;;2.30;;
27632;SDS011;15046;50.930;13.334;2023-08-08T08:20:29;4.07;;;2.30;;
27632;SDS011;15046;50.930;13.334;2023-08-08T08:22:55;4.47;;;1.90;;
27632;SDS011;15046;50.930;13.334;2023-08-08T08:25:21;6.03;;;2.40;;
27632;SDS011;15046;50.930;13.334;2023-08-08T08:27:47;5.55;;;1.92;;
27632;SDS011;15046;50.930;13.334;2023-08-08T08:30:12;3.97;;;1.80;;
27632;SDS011;15046;50.930;13.334;2023-08-08T08:32:41;4.45;;;2.10;;
27632;SDS011;15046;50.930;13.334;2023-08-08T08:35:07;6.45;;;2.42;;
27632;SDS011;15046;50.930;13.334;2023-08-08T08:37:34;5.05;;;2.10;;
27632;SDS011;15046;50.930;13.334;2023-08-08T08:40:00;6.28;;;2.70;;
27632;SDS011;15046;50.930;13.334;2023-08-08T08:42:26;5.63;;;2.50;;
27632;SDS011;15046;50.930;13.334;2023-08-08T08:44:57;5.57;;;2.67;;
27632;SDS011;15046;50.930;13.334;2023-08-08T08:47:24;5.88;;;2.88;;
27632;SDS011;15046;50.930;13.334;2023-08-08T08:49:51;4.53;;;2.70;;
27632;SDS011;15046;50.930;13.334;2023-08-08T08:52:17;5.30;;;2.67;;
27632;SDS011;15046;50.930;13.334;2023-08-08T08:54:43;7.68;;;3.05;;
27632;SDS011;15046;50.930;13.334;2023-08-08T08:57:09;6.05;;;2.90;;
27632;SDS011;15046;50.930;13.334;2023-08-08T08:59:36;7.93;;;3.05;;
27632;SDS011;15046;50.930;13.334;2023-08-08T09:02:02;8.70;;;2.78;;
27632;SDS011;15046;50.930;13.334;2023-08-08T09:04:29;9.93;;;3.58;;
27632;SDS011;15046;50.930;13.334;2023-08-08T09:06:58;8.18;;;3.08;;
27632;SDS011;15046;50.930;13.334;2023-08-08T09:09:24;4.57;;;2.50;;
27632;SDS011;15046;50.930;13.334;2023-08-08T09:11:50;9.00;;;2.88;;
27632;SDS011;15046;50.930;13.334;2023-08-08T09:14:23;5.00;;;2.40;;
27632;SDS011;15046;50.930;13.334;2023-08-08T09:16:50;6.15;;;2.38;;
27632;SDS011;15046;50.930;13.334;2023-08-08T09:19:21;6.10;;;2.45;;
27632;SDS011;15046;50.930;13.334;2023-08-08T09:21:48;7.57;;;2.90;;
27632;SDS011;15046;50.930;13.334;2023-08-08T09:24:14;8.07;;;2.45;;
27632;SDS011;15046;50.930;13.334;2023-08-08T09:26:40;5.25;;;2.35;;
27632;SDS011;15046;50.930;13.334;2023-08-08T09:29:09;4.80;;;2.50;;
27632;SDS011;15046;50.930;13.334;2023-08-08T09:31:40;6.68;;;2.35;;
27632;SDS011;15046;50.930;13.334;2023-08-08T09:34:06;4.18;;;2.00;;
27632;SDS011;15046;50.930;13.334;2023-08-08T09:36:32;3.97;;;1.77;;
27632;SDS011;15046;50.930;13.334;2023-08-08T09:38:58;4.30;;;2.47;;
27632;SDS011;15046;50.930;13.334;2023-08-08T09:41:24;4.65;;;1.63;;
27632;SDS011;15046;50.930;13.334;2023-08-08T09:43:51;8.77;;;2.15;;
27632;SDS011;15046;50.930;13.334;2023-08-08T09:46:19;5.10;;;2.50;;
27632;SDS011;15046;50.930;13.334;2023-08-08T09:48:45;5.45;;;2.15;;
27632;SDS011;15046;50.930;13.334;2023-08-08T09:51:11;6.13;;;2.13;;
27632;SDS011;15046;50.930;13.334;2023-08-08T09:53:38;7.32;;;2.38;;
27632;SDS011;15046;50.930;13.334;2023-08-08T09:56:05;6.00;;;2.25;;
27632;SDS011;15046;50.930;13.334;2023-08-08T09:58:31;5.13;;;2.33;;
27632;SDS011;15046;50.930;13.334;2023-08-08T10:00:57;3.97;;;1.90;;
27632;SDS011;15046;50.930;13.334;2023-08-08T10:03:23;3.88;;;2.00;;
27632;SDS011;15046;50.930;13.334;2023-08-08T10:05:49;5.60;;;2.50;;
27632;SDS011;15046;50.930;13.334;2023-08-08T10:08:15;4.70;;;2.20;;
27632;SDS011;15046;50.930;13.334;2023-08-08T10:10:45;8.45;;;2.38;;
27632;SDS011;15046;50.930;13.334;2023-08-08T10:13:25;5.28;;;2.05;;
27632;SDS011;15046;50.930;13.334;2023-08-08T10:15:52;4.78;;;2.10;;
27632;SDS011;15046;50.930;13.334;2023-08-08T10:18:21;6.57;;;2.40;;
27632;SDS011;15046;50.930;13.334;2023-08-08T10:20:47;3.45;;;2.10;;
27632;SDS011;15046;50.930;13.334;2023-08-08T10:23:18;3.75;;;2.00;;
27632;SDS011;15046;50.930;13.334;2023-08-08T10:25:44;3.70;;;2.03;;
27632;SDS011;15046;50.930;13.334;2023-08-08T10:28:12;5.53;;;2.35;;
27632;SDS011;15046;50.930;13.334;2023-08-08T10:30:46;5.10;;;2.30;;
27632;SDS011;15046;50.930;13.334;2023-08-08T10:33:17;3.47;;;2.00;;
27632;SDS011;15046;50.930;13.334;2023-08-08T10:41:12;4.47;;;1.90;;
27632;SDS011;15046;50.930;13.334;2023-08-08T10:43:51;4.55;;;2.33;;
27632;SDS011;15046;50.930;13.334;2023-08-08T10:46:26;4.93;;;2.10;;
27632;SDS011;15046;50.930;13.334;2023-08-08T10:48:54;6.68;;;2.30;;
27632;SDS011;15046;50.930;13.334;2023-08-08T10:53:58;5.97;;;2.00;;
27632;SDS011;15046;50.930;13.334;2023-08-08T10:56:29;4.00;;;2.00;;
27632;SDS011;15046;50.930;13.334;2023-08-08T10:58:56;5.03;;;2.05;;
27632;SDS011;15046;50.930;13.334;2023-08-08T11:01:25;4.45;;;2.30;;
27632;SDS011;15046;50.930;13.334;2023-08-08T11:03:51;3.05;;;1.80;;
27632;SDS011;15046;50.930;13.334;2023-08-08T11:06:18;5.22;;;2.08;;
27632;SDS011;15046;50.930;13.334;2023-08-08T11:08:44;5.47;;;2.13;;
27632;SDS011;15046;50.930;13.334;2023-08-08T11:11:10;4.07;;;1.98;;
27632;SDS011;15046;50.930;13.334;2023-08-08T11:13:35;4.45;;;1.80;;
27632;SDS011;15046;50.930;13.334;2023-08-08T11:16:01;4.53;;;1.75;;
27632;SDS011;15046;50.930;13.334;2023-08-08T11:18:27;3.80;;;1.75;;
27632;SDS011;15046;50.930;13.334;2023-08-08T11:20:54;6.50;;;1.98;;
27632;SDS011;15046;50.930;13.334;2023-08-08T11:23:19;6.13;;;1.73;;
27632;SDS011;15046;50.930;13.334;2023-08-08T11:25:46;5.78;;;1.77;;
27632;SDS011;15046;50.930;13.334;2023-08-08T11:28:13;3.13;;;1.88;;
27632;SDS011;15046;50.930;13.334;2023-08-08T11:30:40;5.10;;;1.92;;
27632;SDS011;15046;50.930;13.334;2023-08-08T11:33:08;4.65;;;1.80;;
27632;SDS011;15046;50.930;13.334;2023-08-08T11:35:34;3.70;;;1.70;;
27632;SDS011;15046;50.930;13.334;2023-08-08T11:38:00;3.33;;;1.83;;
27632;SDS011;15046;50.930;13.334;2023-08-08T11:40:28;6.57;;;1.90;;
27632;SDS011;15046;50.930;13.334;2023-08-08T11:42:55;3.80;;;1.58;;
27632;SDS011;15046;50.930;13.334;2023-08-08T11:45:22;4.75;;;1.67;;
27632;SDS011;15046;50.930;13.334;2023-08-08T11:47:53;5.47;;;1.50;;
27632;SDS011;15046;50.930;13.334;2023-08-08T11:50:22;4.00;;;1.60;;
27632;SDS011;15046;50.930;13.334;2023-08-08T11:52:53;4.38;;;1.80;;
27632;SDS011;15046;50.930;13.334;2023-08-08T11:55:20;3.97;;;1.67;;
27632;SDS011;15046;50.930;13.334;2023-08-08T11:57:47;3.97;;;1.90;;
27632;SDS011;15046;50.930;13.334;2023-08-08T12:00:14;5.32;;;1.55;;
27632;SDS011;15046;50.930;13.334;2023-08-08T12:02:44;4.28;;;1.55;;
27632;SDS011;15046;50.930;13.334;2023-08-08T12:05:14;3.50;;;1.70;;
27632;SDS011;15046;50.930;13.334;2023-08-08T12:07:46;3.75;;;1.95;;
27632;SDS011;15046;50.930;13.334;2023-08-08T12:10:14;3.55;;;2.00;;
27632;SDS011;15046;50.930;13.334;2023-08-08T12:12:44;6.10;;;2.30;;
27632;SDS011;15046;50.930;13.334;2023-08-08T12:15:11;4.18;;;1.67;;
27632;SDS011;15046;50.930;13.334;2023-08-08T12:17:37;3.08;;;1.70;;
27632;SDS011;15046;50.930;13.334;2023-08-08T12:20:04;4.03;;;1.92;;
27632;SDS011;15046;50.930;13.334;2023-08-08T12:22:30;5.03;;;1.90;;
27632;SDS011;15046;50.930;13.334;2023-08-08T12:24:57;3.28;;;1.85;;
27632;SDS011;15046;50.930;13.334;2023-08-08T12:27:22;3.95;;;1.90;;
27632;SDS011;15046;50.930;13.334;2023-08-08T12:29:48;3.35;;;1.60;;
27632;SDS011;15046;50.930;13.334;2023-08-08T12:32:14;6.28;;;1.70;;
27632;SDS011;15046;50.930;13.334;2023-08-08T12:34:40;4.57;;;1.98;;
27632;SDS011;15046;50.930;13.334;2023-08-08T12:37:06;4.65;;;1.77;;
27632;SDS011;15046;50.930;13.334;2023-08-08T12:39:31;3.85;;;1.33;;
27632;SDS011;15046;50.930;13.334;2023-08-08T12:41:57;4.75;;;1.70;;
27632;SDS011;15046;50.930;13.334;2023-08-08T12:44:23;2.97;;;1.38;;
27632;SDS011;15046;50.930;13.334;2023-08-08T12:46:49;4.10;;;1.70;;
27632;SDS011;15046;50.930;13.334;2023-08-08T12:49:14;3.00;;;1.50;;
27632;SDS011;15046;50.930;13.334;2023-08-08T12:51:40;2.38;;;1.60;;
27632;SDS011;15046;50.930;13.334;2023-08-08T12:54:06;6.55;;;2.05;;
27632;SDS011;15046;50.930;13.334;2023-08-08T12:56:32;3.17;;;1.83;;
27632;SDS011;15046;50.930;13.334;2023-08-08T12:58:58;3.28;;;1.65;;
27632;SDS011;15046;50.930;13.334;2023-08-08T13:01:24;3.65;;;1.70;;
27632;SDS011;15046;50.930;13.334;2023-08-08T13:03:50;2.97;;;1.75;;
27632;SDS011;15046;50.930;13.334;2023-08-08T13:06:16;3.25;;;1.35;;
27632;SDS011;15046;50.930;13.334;2023-08-08T13:08:42;3.80;;;1.92;;
27632;SDS011;15046;50.930;13.334;2023-08-08T13:11:08;5.00;;;2.30;;
27632;SDS011;15046;50.930;13.334;2023-08-08T13:13:34;5.13;;;1.98;;
27632;SDS011;15046;50.930;13.334;2023-08-08T13:16:00;4.38;;;2.03;;
27632;SDS011;15046;50.930;13.334;2023-08-08T13:18:25;3.15;;;1.75;;
27632;SDS011;15046;50.930;13.334;2023-08-08T13:20:51;6.22;;;2.13;;
27632;SDS011;15046;50.930;13.334;2023-08-08T13:23:17;6.20;;;2.25;;
27632;SDS011;15046;50.930;13.334;2023-08-08T13:25:43;4.65;;;1.80;;
27632;SDS011;15046;50.930;13.334;2023-08-08T13:28:09;7.07;;;2.63;;
27632;SDS011;15046;50.930;13.334;2023-08-08T13:30:36;4.68;;;1.80;;
27632;SDS011;15046;50.930;13.334;2023-08-08T13:33:03;19.20;;;7.40;;
27632;SDS011;15046;50.930;13.334;2023-08-08T13:35:29;8.10;;;3.70;;
27632;SDS011;15046;50.930;13.334;2023-08-08T13:37:55;13.13;;;5.60;;
27632;SDS011;15046;50.930;13.334;2023-08-08T13:40:21;4.63;;;2.50;;
27632;SDS011;15046;50.930;13.334;2023-08-08T13:42:47;5.05;;;2.55;;
27632;SDS011;15046;50.930;13.334;2023-08-08T13:45:16;6.00;;;2.30;;
27632;SDS011;15046;50.930;13.334;2023-08-08T13:47:46;5.38;;;2.80;;
27632;SDS011;15046;50.930;13.334;2023-08-08T13:50:13;6.68;;;3.05;;
27632;SDS011;15046;50.930;13.334;2023-08-08T13:52:39;6.10;;;2.45;;
27632;SDS011;15046;50.930;13.334;2023-08-08T13:55:06;5.15;;;2.78;;
27632;SDS011;15046;50.930;13.334;2023-08-08T13:57:33;5.22;;;2.65;;
27632;SDS011;15046;50.930;13.334;2023-08-08T14:00:00;5.70;;;2.50;;
27632;SDS011;15046;50.930;13.334;2023-08-08T14:02:28;3.80;;;2.20;;
27632;SDS011;15046;50.930;13.334;2023-08-08T14:04:55;4.22;;;2.00;;
27632;SDS011;15046;50.930;13.334;2023-08-08T14:07:21;6.65;;;2.20;;
27632;SDS011;15046;50.930;13.334;2023-08-08T14:09:47;6.97;;;2.05;;
27632;SDS011;15046;50.930;13.334;2023-08-08T14:12:12;4.95;;;2.13;;
27632;SDS011;15046;50.930;13.334;2023-08-08T14:14:38;3.83;;;1.80;;
27632;SDS011;15046;50.930;13.334;2023-08-08T14:17:04;4.25;;;1.85;;
27632;SDS011;15046;50.930;13.334;2023-08-08T14:19:30;4.35;;;2.15;;
27632;SDS011;15046;50.930;13.334;2023-08-08T14:21:56;5.38;;;2.42;;
27632;SDS011;15046;50.930;13.334;2023-08-08T14:24:22;5.88;;;2.28;;
27632;SDS011;15046;50.930;13.334;2023-08-08T14:26:48;5.50;;;2.22;;
27632;SDS011;15046;50.930;13.334;2023-08-08T14:29:13;6.85;;;2.35;;
27632;SDS011;15046;50.930;13.334;2023-08-08T14:31:39;6.90;;;2.10;;
27632;SDS011;15046;50.930;13.334;2023-08-08T14:34:05;5.18;;;1.95;;
27632;SDS011;15046;50.930;13.334;2023-08-08T14:36:31;5.78;;;2.20;;
27632;SDS011;15046;50.930;13.334;2023-08-08T14:38:57;4.20;;;2.05;;